Map

Track Data

SID SEASON NUMBER BASIN SUBBASIN NAME ISO_TIME NATURE LAT LON WMO_WIND WMO_PRES WMO_AGENCY TRACK_TYPE DIST2LAND LANDFALL IFLAG USA_AGENCY USA_ATCF_ID USA_LAT USA_LON USA_RECORD USA_STATUS USA_WIND USA_PRES USA_SSHS USA_R34_NE USA_R34_SE USA_R34_SW USA_R34_NW USA_R50_NE USA_R50_SE USA_R50_SW USA_R50_NW USA_R64_NE USA_R64_SE USA_R64_SW USA_R64_NW USA_POCI USA_ROCI USA_RMW USA_EYE TOKYO_LAT TOKYO_LON TOKYO_GRADE TOKYO_WIND TOKYO_PRES TOKYO_R50_DIR TOKYO_R50_LONG TOKYO_R50_SHORT TOKYO_R30_DIR TOKYO_R30_LONG TOKYO_R30_SHORT TOKYO_LAND CMA_LAT CMA_LON CMA_CAT CMA_WIND CMA_PRES HKO_LAT HKO_LON HKO_CAT HKO_WIND HKO_PRES NEWDELHI_LAT NEWDELHI_LON NEWDELHI_GRADE NEWDELHI_WIND NEWDELHI_PRES NEWDELHI_CI NEWDELHI_DP NEWDELHI_POCI REUNION_LAT REUNION_LON REUNION_TYPE REUNION_WIND REUNION_PRES REUNION_TNUM REUNION_CI REUNION_RMW REUNION_R34_NE REUNION_R34_SE REUNION_R34_SW REUNION_R34_NW REUNION_R50_NE REUNION_R50_SE REUNION_R50_SW REUNION_R50_NW REUNION_R64_NE REUNION_R64_SE REUNION_R64_SW REUNION_R64_NW BOM_LAT BOM_LON BOM_TYPE BOM_WIND BOM_PRES BOM_TNUM BOM_CI BOM_RMW BOM_R34_NE BOM_R34_SE BOM_R34_SW BOM_R34_NW BOM_R50_NE BOM_R50_SE BOM_R50_SW BOM_R50_NW BOM_R64_NE BOM_R64_SE BOM_R64_SW BOM_R64_NW BOM_ROCI BOM_POCI BOM_EYE BOM_POS_METHOD BOM_PRES_METHOD NADI_LAT NADI_LON NADI_CAT NADI_WIND NADI_PRES WELLINGTON_LAT WELLINGTON_LON WELLINGTON_WIND WELLINGTON_PRES DS824_LAT DS824_LON DS824_STAGE DS824_WIND DS824_PRES TD9636_LAT TD9636_LON TD9636_STAGE TD9636_WIND TD9636_PRES TD9635_LAT TD9635_LON TD9635_WIND TD9635_PRES TD9635_ROCI NEUMANN_LAT NEUMANN_LON NEUMANN_CLASS NEUMANN_WIND NEUMANN_PRES MLC_LAT MLC_LON MLC_CLASS MLC_WIND MLC_PRES USA_GUST BOM_GUST BOM_GUST_PER REUNION_GUST REUNION_GUST_PER USA_SEAHGT USA_SEARAD_NE USA_SEARAD_SE USA_SEARAD_SW USA_SEARAD_NW STORM_SPEED STORM_DIR
1947064S15051 1947 21 SI MM NOT_NAMED 1947-03-04 18:00:00 TS -15.2000 51.4000 main 96 75 O________OO___ jtwc_sh SH191947 -15.2000 51.4000 -1 -15.2000 51.4000 TC -15.2000 51.4000 7 5 223
1947064S15051 1947 21 SI MM NOT_NAMED 1947-03-04 21:00:00 TS -15.3949 51.2084 main 75 54 P________PP___ SH191947 -15.4025 51.2251 -1 -15.4025 51.2251 TC -15.3797 51.1750 7 6 226
1947064S15051 1947 21 SI MM NOT_NAMED 1947-03-05 00:00:00 TS -15.5891 50.9766 main 58 34 O________OP___ jtwc_sh SH191947 -15.6000 51.0000 -1 -15.6000 51.0000 TC -15.5674 50.9299 7 6 233
1947064S15051 1947 21 SI MM NOT_NAMED 1947-03-05 03:00:00 TS -15.7855 50.6732 main 39 10 P________PP___ SH191947 -15.7925 50.6874 -1 -15.7925 50.6874 TC -15.7715 50.6449 7 8 238
1947064S15051 1947 21 SI MM NOT_NAMED 1947-03-05 06:00:00 TS -16.0000 50.3000 main 10 0 O________OO___ jtwc_sh SH191947 -16.0000 50.3000 -1 -16.0000 50.3000 TC 35 -16.0000 50.3000 2 9 239
1947064S15051 1947 21 SI MM NOT_NAMED 1947-03-05 09:00:00 TS -16.2424 49.8802 main 0 0 P________PP___ SH191947 -16.2349 49.8798 -1 -16.2349 49.8798 TC 35 -16.2575 49.8810 2 10 239
1947064S15051 1947 21 SI MM NOT_NAMED 1947-03-05 12:00:00 TS -16.5116 49.3992 main 0 0 O________OP___ jtwc_sh SH191947 -16.5000 49.4000 -1 -16.5000 49.4000 TC 35 -16.5349 49.3975 2 11 240
1947064S15051 1947 21 SI MM NOT_NAMED 1947-03-05 15:00:00 TS -16.8065 48.8750 main 0 0 P________PP___ SH191947 -16.7998 48.8799 -1 -16.7998 48.8799 TC 35 -16.8198 48.8652 2 12 241
1947064S15051 1947 21 SI MM NOT_NAMED 1947-03-05 18:00:00 TS -17.1000 48.3000 main 0 0 O________OO___ jtwc_sh SH191947 -17.1000 48.3000 -1 -17.1000 48.3000 TC 35 -17.1000 48.3000 2 13 244
1947064S15051 1947 21 SI MM NOT_NAMED 1947-03-05 21:00:00 TS -17.3603 47.6640 main 0 0 P________PP___ SH191947 -17.3576 47.6499 -1 -17.3576 47.6499 TC 35 -17.3658 47.6924 2 13 247
1947064S15051 1947 21 SI MM NOT_NAMED 1947-03-06 00:00:00 TS -17.6078 47.0209 main 0 0 O________OP___ jtwc_sh SH191947 -17.6000 47.0000 -1 -17.6000 47.0000 TC 35 -17.6233 47.0628 2 13 247
1947064S15051 1947 21 SI MM NOT_NAMED 1947-03-06 03:00:00 TS -17.8613 46.4206 main 0 0 P________PP___ SH191947 -17.8574 46.4050 -1 -17.8574 46.4050 TC 35 -17.8690 46.4518 2 12 245
1947064S15051 1947 21 SI MM NOT_NAMED 1947-03-06 06:00:00 TS -18.1000 45.9000 main 0 0 O________OO___ jtwc_sh SH191947 -18.1000 45.9000 -1 -18.1000 45.9000 TC 35 -18.1000 45.9000 2 10 243
1947064S15051 1947 21 SI MM NOT_NAMED 1947-03-06 09:00:00 TS -18.3065 45.5046 main 0 0 P________PP___ SH191947 -18.3072 45.5272 -1 -18.3072 45.5272 TC 35 -18.3052 45.4594 2 8 240
1947064S15051 1947 21 SI MM NOT_NAMED 1947-03-06 12:00:00 TS -18.4996 45.1604 main 0 0 O________OP___ jtwc_sh SH191947 -18.5000 45.2000 -1 -18.5000 45.2000 TC 35 -18.4987 45.0813 2 8 241
1947064S15051 1947 21 SI MM NOT_NAMED 1947-03-06 15:00:00 TS -18.6926 44.7791 main 0 0 P________PP___ SH191947 -18.6925 44.7999 -1 -18.6925 44.7999 TC 35 -18.6929 44.7376 2 8 241
1947064S15051 1947 21 SI MM NOT_NAMED 1947-03-06 18:00:00 TS -18.9000 44.4000 main 0 0 O________OO___ jtwc_sh SH191947 -18.9000 44.4000 -1 -18.9000 44.4000 TC 35 -18.9000 44.4000 2 9 239
1947064S15051 1947 21 SI MM NOT_NAMED 1947-03-06 21:00:00 TS -19.1308 43.9987 main 21 21 P________PP___ SH191947 -19.1423 44.0499 -1 -19.1423 44.0499 TC 35 -19.1076 43.8964 2 9 238
1947064S15051 1947 21 SI MM NOT_NAMED 1947-03-07 00:00:00 TS -19.3776 43.6042 main 71 71 O________OP___ jtwc_sh SH191947 -19.4000 43.7000 -1 -19.4000 43.7000 TC 35 -19.3329 43.4125 2 9 239
1947064S15051 1947 21 SI MM NOT_NAMED 1947-03-07 03:00:00 TS -19.6107 43.1610 main 118 118 P________PP___ SH191947 -19.6202 43.2179 -1 -19.6202 43.2179 TC 35 -19.5916 43.0472 2 8 232
1947064S15051 1947 21 SI MM NOT_NAMED 1947-03-07 06:00:00 TS -19.9000 42.9000 main 142 109 O________OO___ jtwc_sh SH191947 -19.9000 42.9000 -1 -19.9000 42.9000 TC 35 -19.9000 42.9000 2 7 193
1947064S15051 1947 21 SI MM NOT_NAMED 1947-03-07 09:00:00 TS -20.3205 42.9911 main 109 62 P________PP___ SH191947 -20.3270 42.9425 -1 -20.3270 42.9425 TC 35 -20.3073 43.0884 2 10 154
1947064S15051 1947 21 SI MM NOT_NAMED 1947-03-07 12:00:00 TS -20.7860 43.3663 main 51 0 O________OP___ jtwc_sh SH191947 -20.8000 43.3000 -1 -20.8000 43.3000 TC 35 -20.7581 43.4989 2 13 135
1947064S15051 1947 21 SI MM NOT_NAMED 1947-03-07 15:00:00 TS -21.2220 43.9530 main 0 0 P________PP___ SH191947 -21.2306 43.9119 -1 -21.2306 43.9119 TC 35 -21.2047 44.0354 2 14 125
1947064S15051 1947 21 SI MM NOT_NAMED 1947-03-07 18:00:00 TS -21.6000 44.6000 main 0 0 O________OO___ jtwc_sh SH191947 -21.6000 44.6000 -1 -21.6000 44.6000 TC 35 -21.6000 44.6000 2 12 122
1947064S15051 1947 21 SI MM NOT_NAMED 1947-03-07 21:00:00 TS -21.8819 45.0710 main 0 0 P________PP___ SH191947 -21.8796 45.0805 -1 -21.8796 45.0805 TC 35 -21.8864 45.0519 2 10 121
1947064S15051 1947 21 SI MM NOT_NAMED 1947-03-08 00:00:00 TS -22.1058 45.5029 main 0 0 O________OP___ jtwc_sh SH191947 -22.1000 45.5000 -1 -22.1000 45.5000 TC 35 -22.1173 45.5087 2 9 117
1947064S15051 1947 21 SI MM NOT_NAMED 1947-03-08 03:00:00 TS -22.3098 45.9588 main 0 0 P________PP___ SH191947 -22.3074 45.9577 -1 -22.3074 45.9577 TC 35 -22.3146 45.9611 2 9 115
1947064S15051 1947 21 SI MM NOT_NAMED 1947-03-08 06:00:00 TS -22.5000 46.4000 main 0 0 O________OO___ jtwc_sh SH191947 -22.5000 46.4000 -1 -22.5000 46.4000 TC 35 -22.5000 46.4000 2 9 116
1947064S15051 1947 21 SI MM NOT_NAMED 1947-03-08 09:00:00 TS -22.6981 46.8102 main 0 0 P________PP___ SH191947 -22.6998 46.8076 -1 -22.6998 46.8076 TC 35 -22.6945 46.8152 2 8 118
1947064S15051 1947 21 SI MM NOT_NAMED 1947-03-08 12:00:00 TS -22.8948 47.2054 main 0 0 O________OP___ jtwc_sh SH191947 -22.9000 47.2000 -1 -22.9000 47.2000 TC 35 -22.8844 47.2161 2 8 118
1947064S15051 1947 21 SI MM NOT_NAMED 1947-03-08 15:00:00 TS -23.0889 47.6031 main 0 0 P________PP___ SH191947 -23.0924 47.6002 -1 -23.0924 47.6002 TC 35 -23.0821 47.6090 2 8 119
1947064S15051 1947 21 SI MM NOT_NAMED 1947-03-08 18:00:00 TS -23.3000 48.0000 main 30 30 O________OO___ jtwc_sh SH191947 -23.3000 48.0000 -1 -23.3000 48.0000 TC 35 -23.3000 48.0000 2 8 121
1947064S15051 1947 21 SI MM NOT_NAMED 1947-03-08 21:00:00 TS -23.5272 48.3873 main 72 72 P________PP___ SH191947 -23.5349 48.4002 -1 -23.5349 48.4002 TC 35 -23.5117 48.3615 2 9 124
1947064S15051 1947 21 SI MM NOT_NAMED 1947-03-09 00:00:00 TS -23.7836 48.7762 main 120 120 O________OP___ jtwc_sh SH191947 -23.8000 48.8000 -1 -23.8000 48.8000 TC 35 -23.7508 48.7285 2 9 127
1947064S15051 1947 21 SI MM NOT_NAMED 1947-03-09 03:00:00 TS -24.0546 49.1575 main 171 171 P________PP___ SH191947 -24.0621 49.1707 -1 -24.0621 49.1707 TC 35 -24.0395 49.1311 2 10 129
1947064S15051 1947 21 SI MM NOT_NAMED 1947-03-09 06:00:00 TS -24.4000 49.6000 main 217 217 O________OO___ jtwc_sh SH191947 -24.4000 49.6000 -1 -24.4000 49.6000 TC 35 -24.4000 49.6000 2 12 131
1947064S15051 1947 21 SI MM NOT_NAMED 1947-03-09 09:00:00 TS -24.8554 50.1601 main 291 291 P________PP___ SH191947 -24.8624 50.1552 -1 -24.8624 50.1552 TC 35 -24.8413 50.1699 2 15 132
1947064S15051 1947 21 SI MM NOT_NAMED 1947-03-09 12:00:00 TS -25.3843 50.8034 main 366 366 O________OP___ jtwc_sh SH191947 -25.4000 50.8000 -1 -25.4000 50.8000 TC 35 -25.3529 50.8103 2 16 132
1947064S15051 1947 21 SI MM NOT_NAMED 1947-03-09 15:00:00 TS -25.9276 51.4938 main 450 450 P________PP___ SH191947 -25.9350 51.4929 -1 -25.9350 51.4929 TC 35 -25.9129 51.4957 2 17 132
1947064S15051 1947 21 SI MM NOT_NAMED 1947-03-09 18:00:00 TS -26.5000 52.2000 main 537 537 O________OO___ jtwc_sh SH191947 -26.5000 52.2000 -1 -26.5000 52.2000 TC 35 -26.5000 52.2000 2 17 134
1947064S15051 1947 21 SI MM NOT_NAMED 1947-03-09 21:00:00 TS -27.1003 52.8468 main 615 615 P________PP___ SH191947 -27.0919 52.8434 -1 -27.0919 52.8434 TC 35 -27.1171 52.8535 2 17 136
1947064S15051 1947 21 SI MM NOT_NAMED 1947-03-10 00:00:00 TS -27.7165 53.5085 main 704 704 O________OP___ jtwc_sh SH191947 -27.7000 53.5000 -1 -27.7000 53.5000 TC 35 -27.7495 53.5254 2 17 136
1947064S15051 1947 21 SI MM NOT_NAMED 1947-03-10 03:00:00 TS -28.3387 54.2201 main 783 783 P________PP___ SH191947 -28.3294 54.2128 -1 -28.3294 54.2128 TC 35 -28.3573 54.2347 2 18 132
1947064S15051 1947 21 SI MM NOT_NAMED 1947-03-10 06:00:00 TS -28.9000 55.0000 main 840 840 O________OO___ jtwc_sh SH191947 -28.9000 55.0000 -1 -28.9000 55.0000 TC 35 -28.9000 55.0000 2 18 125
1947064S15051 1947 21 SI MM NOT_NAMED 1947-03-10 09:00:00 TS -29.3440 55.8709 main 883 883 P________PP___ SH191947 -29.3448 55.8782 -1 -29.3448 55.8782 TC 35 -29.3425 55.8564 2 18 117
1947064S15051 1947 21 SI MM NOT_NAMED 1947-03-10 12:00:00 TS -29.7043 56.7882 main 934 934 O________OP___ jtwc_sh SH191947 -29.7000 56.8000 -1 -29.7000 56.8000 TC 35 -29.7130 56.7645 2 17 113
1947064S15051 1947 21 SI MM NOT_NAMED 1947-03-10 15:00:00 TS -30.0236 57.7022 main 983 983 P________PP___ SH191947 -30.0220 57.7082 -1 -30.0220 57.7082 TC 35 -30.0268 57.6904 2 17 111
1947064S15051 1947 21 SI MM NOT_NAMED 1947-03-10 18:00:00 TS -30.3000 58.6000 main 1038 1038 O________OO___ jtwc_sh SH191947 -30.3000 58.6000 -1 -30.3000 58.6000 TC 35 -30.3000 58.6000 2 16 109
1947064S15051 1947 21 SI MM NOT_NAMED 1947-03-10 21:00:00 TS -30.5589 59.4660 main 1098 1098 P________PP___ SH191947 -30.5644 59.4654 -1 -30.5644 59.4654 TC 35 -30.5477 59.4672 2 15 109
1947064S15051 1947 21 SI MM NOT_NAMED 1947-03-11 00:00:00 TS -30.7924 60.2991 main 1149 1149 O________OP___ jtwc_sh SH191947 -30.8000 60.3000 -1 -30.8000 60.3000 TC 35 -30.7771 60.2974 2 15 108
1947064S15051 1947 21 SI MM NOT_NAMED 1947-03-11 03:00:00 TS -31.0033 61.1059 main 1203 1203 P________PP___ SH191947 -31.0084 61.1069 -1 -31.0084 61.1069 TC 35 -30.9931 61.1039 2 14 107
1947064S15051 1947 21 SI MM NOT_NAMED 1947-03-11 06:00:00 TS -31.2000 61.9000 main 1261 O________OO___ jtwc_sh SH191947 -31.2000 61.9000 -1 -31.2000 61.9000 TC 35 -31.2000 61.9000 2 14 106

About IBTrACS Database

This database is a web-friendly format of International Best Track Archive for Climate Stewardship (IBTrACS), a global best track data archive curated by NOAA dating back to 1842.

Updated: 2021-11-26